Edinburgh Airport

EGPH · Scotland, 英国

罗盘
风向 的 愛丁堡機場 6/24
风: 2 kt, 1 beaufort

1 kt

2 kt
改变
0 ft 1.000 2.000 3.000 4.000 5.000
Cloud Cloud
FEW 1.200
Cloud Cloud Cloud Cloud
SCT 4.300
METAR EGPH 211720Z VRB02KT 9999 FEW012 SCT043 11/08 Q1032

METAR 愛丁堡機場 - EGPH/EDI

愛丁堡機場是,英国中的中型机场。 该机场位于纬度55,94995和经度-3,37260。 该机场有一条跑道: 6/24. 本场的ICAO机场代码为EGPH。 该机场的IATA代码为EDI。 机场在Scottish FIR中。

该航空气象观测是针对愛丁堡機場在2024年4月21日 18:20, 当地时间进行的。

机场观察

可变方向的风很小或没有风。

可见度为10 km 或者更多。

有几云在1.200 ft的高度 和 疏云,零星散落的云朵在4.300 ft的高度。 没有观察到天花板。

温度和风寒是11 °C。 露点为8 °C,相对湿度为82%。 海平面上的气压为1032 hPa (QNH)。

白天

今天,太阳从05:51升起,在20:32降落。 这适用于愛丁堡機場,世界夏令时可能有所不同。 当地时间与世界标准时间之间的时差为+1 小时。 夏令时目前正在进行中。

公司介绍

在这个机场,你可以找到飞行学校。 本场上唯一已知的公司是Edinburgh Flying Club。

体会

到Vliegles.nl去找飞行课程,跳伞和其他飞行体验。 浏览页面,了解愛丁堡機場附近所有可用的活动。 你也可以使用搜索功能来寻找你所在地附近的特定飞行课程、跳伞或其他飞行体验。

请勿用于飞行规划
机场可能关闭或需要事先获得许可。 真正的航向和跑道末端的坐标可能是一个估计值。 磁性航向是使用WMM2020模型从真实航向计算出来的。

跑道

Id 标题 侧风 逆风 侧风 %
6/24 059°-239° 2 kt 1 kt 86 %

逆风成分最大的方向会被突出显示,并用于横风计算。 这并不一定意味着这个方向在使用。

乌云

1.200 ft FEW 几云
4.300 ft SCT 疏云,零星散落的云朵

温度 & 天气

温度 11 °C
露点 8 °C
相对湿度 82%
Kp-index 2 (0-9)

白天

日出
05:51
中午
13:12
日落
20:32 (1:31)

小工具

你想在你的网站上有一个关于愛丁堡機場的当前航空天气(METAR)的小部件吗?

显示HTML代码
报告变更